Terminal Aerodrome Forecast
Issued by NWS Wilmington, OH

Home | Current Version | Previous Version | Text Only | Print | Product List | Glossary On
Versions: 1 2 3 4 5 6 7 8 9 10 11 12 13 14 15 16 17 18 19 20 21 22 23 24 25
000
FTUS41 KILN 011100
TAFCVG
TAF
KCVG 011127Z 0112/0218 20007KT P6SM VCSH OVC012
      TEMPO 0112/0114 BKN008
     FM011400 22009KT P6SM BKN025
     FM011700 21011G20KT P6SM SCT035
     FM020000 19008KT P6SM SCT150 BKN250
     FM020600 20005KT P6SM VCSH BKN040
     FM021000 22008KT P6SM VCTS BKN030CB=

USA.gov is the U.S. government's official web portal to all federal, state and local government web resources and services.